Time;durP1;ratioP1;P1;durP2;ratioP2;P2;SDS_P1;SDS_P2;PMS_P1;PMS_P2;Temp;Humidity;BMP_temperature;BMP_pressure;BME280_temperature;BME280_humidity;BME280_pressure;Samples;Min_cycle;Max_cycle;Signal;HPM_P1;HPM_P2
2022/10/29 00:01:47;;;;;;;15.18;3.97;;;14.00;99.90;;;;;;4882832;29;20057;-72
2022/10/29 00:04:12;;;;;;;14.05;3.40;;;14.00;99.90;;;;;;4881677;29;20052;-72
2022/10/29 00:06:38;;;;;;;14.60;3.33;;;13.90;99.90;;;;;;4882490;29;20053;-72
2022/10/29 00:09:04;;;;;;;13.88;3.22;;;13.90;99.90;;;;;;4881132;29;20080;-72
2022/10/29 00:11:30;;;;;;;13.45;3.33;;;13.90;99.90;;;;;;4881557;29;20052;-72
2022/10/29 00:13:59;;;;;;;11.68;4.05;;;13.90;99.90;;;;;;4882379;29;20053;-72
2022/10/29 00:16:33;;;;;;;10.50;3.10;;;13.80;99.90;;;;;;4882200;29;20087;-72
2022/10/29 00:18:58;;;;;;;8.93;3.30;;;13.90;99.90;;;;;;4882339;29;20061;-72
2022/10/29 00:21:25;;;;;;;13.38;3.40;;;13.80;99.90;;;;;;4882204;29;20049;-72
2022/10/29 00:23:51;;;;;;;9.10;3.38;;;13.90;99.90;;;;;;4881129;29;20374;-72
2022/10/29 00:26:20;;;;;;;11.75;3.60;;;13.80;99.90;;;;;;4882193;29;20048;-72
2022/10/29 00:28:46;;;;;;;10.35;2.72;;;13.80;99.90;;;;;;4882169;29;20056;-72
2022/10/29 00:31:14;;;;;;;9.90;3.10;;;13.80;99.90;;;;;;4882260;29;20049;-72
2022/10/29 00:33:41;;;;;;;16.98;4.00;;;13.80;99.90;;;;;;4882056;29;20080;-72
2022/10/29 00:36:12;;;;;;;12.35;3.50;;;13.80;99.90;;;;;;4881906;29;20112;-72
2022/10/29 00:38:38;;;;;;;10.77;3.67;;;13.80;99.90;;;;;;4865811;29;20049;-72
2022/10/29 00:41:05;;;;;;;10.90;3.63;;;13.80;99.90;;;;;;4880928;29;20050;-72
2022/10/29 00:43:36;;;;;;;10.07;3.35;;;13.80;99.90;;;;;;4895882;29;20049;-72
2022/10/29 00:46:05;;;;;;;11.93;3.25;;;13.80;99.90;;;;;;4881816;29;20418;-72
2022/10/29 00:48:34;;;;;;;12.93;3.15;;;13.70;99.90;;;;;;4881353;29;20056;-72
2022/10/29 00:51:04;;;;;;;10.70;3.00;;;13.70;99.90;;;;;;4881539;29;20048;-72
2022/10/29 00:53:33;;;;;;;13.48;4.03;;;13.70;99.90;;;;;;4881903;29;20410;-72
2022/10/29 00:55:59;;;;;;;11.80;3.75;;;13.70;99.90;;;;;;4865423;29;20056;-71
2022/10/29 00:58:26;;;;;;;12.82;3.20;;;13.70;99.90;;;;;;4880692;29;20088;-72
2022/10/29 01:00:52;;;;;;;13.05;3.70;;;13.60;99.90;;;;;;4881533;29;20061;-72
2022/10/29 01:03:18;;;;;;;11.57;3.90;;;13.60;99.90;;;;;;4880107;29;20055;-72
2022/10/29 01:05:45;;;;;;;13.77;3.75;;;13.60;99.90;;;;;;4880932;29;20049;-72
2022/10/29 01:08:12;;;;;;;12.25;3.83;;;13.50;99.90;;;;;;4880467;29;20063;-72
2022/10/29 01:10:47;;;;;;;15.07;3.90;;;13.50;99.90;;;;;;4880698;29;20045;-72
2022/10/29 01:13:48;;;;;;;14.52;3.75;;;13.50;99.90;;;;;;4880070;29;20592;-72
2022/10/29 01:16:42;;;;;;;11.82;3.53;;;13.50;99.90;;;;;;4881709;29;20439;-72
2022/10/29 01:19:25;;;;;;;12.60;3.80;;;13.40;99.90;;;;;;4865168;29;20060;-72
2022/10/29 01:22:11;;;;;;;12.18;3.80;;;13.40;99.90;;;;;;4881655;29;20088;-72
2022/10/29 01:24:49;;;;;;;12.98;3.85;;;13.30;99.90;;;;;;4880637;29;20061;-72
2022/10/29 01:27:18;;;;;;;13.88;4.68;;;13.30;99.90;;;;;;4881106;29;20462;-72
2022/10/29 01:30:21;;;;;;;8.55;3.65;;;13.30;99.90;;;;;;4879897;29;20049;-72
2022/10/29 01:33:07;;;;;;;12.43;4.55;;;13.20;99.90;;;;;;4881739;29;20049;-72
2022/10/29 01:36:05;;;;;;;11.55;4.05;;;13.20;99.90;;;;;;4880875;29;20056;-72
2022/10/29 01:38:42;;;;;;;15.75;4.40;;;13.20;99.90;;;;;;4879950;29;20057;-72
2022/10/29 01:41:37;;;;;;;20.90;5.63;;;13.20;99.90;;;;;;4880917;29;20604;-72
2022/10/29 01:44:25;;;;;;;15.70;5.72;;;13.20;99.90;;;;;;4880367;29;20447;-72
2022/10/29 01:47:01;;;;;;;13.65;5.80;;;13.20;99.90;;;;;;4880537;29;20048;-72
2022/10/29 01:49:43;;;;;;;17.10;5.47;;;13.20;99.90;;;;;;4895235;29;20057;-72
2022/10/29 01:52:12;;;;;;;12.40;5.53;;;13.20;99.90;;;;;;4880329;29;20049;-72
2022/10/29 01:54:43;;;;;;;8.63;4.30;;;13.20;99.90;;;;;;4863898;29;20065;-72
2022/10/29 01:57:35;;;;;;;15.93;5.28;;;13.20;99.90;;;;;;4880295;29;20477;-72
2022/10/29 02:00:21;;;;;;;13.30;5.50;;;13.20;99.90;;;;;;4879654;29;20061;-72
2022/10/29 02:03:05;;;;;;;16.75;5.60;;;13.20;99.90;;;;;;4879915;29;20056;-72
2022/10/29 02:05:47;;;;;;;13.55;5.43;;;13.10;99.90;;;;;;4879612;29;20053;-72
2022/10/29 02:08:21;;;;;;;15.00;4.93;;;13.20;99.90;;;;;;4880437;29;20140;-72
2022/10/29 02:10:59;;;;;;;14.65;5.15;;;13.10;99.90;;;;;;4879504;29;20100;-72
2022/10/29 02:13:32;;;;;;;15.10;5.35;;;13.10;99.90;;;;;;4880551;29;20379;-72
2022/10/29 02:16:01;;;;;;;11.50;4.88;;;13.10;99.90;;;;;;4880337;29;20418;-72
2022/10/29 02:18:27;;;;;;;13.98;5.38;;;13.00;99.90;;;;;;4878274;29;20067;-72
2022/10/29 02:20:53;;;;;;;15.63;5.60;;;13.00;99.90;;;;;;4864085;29;20053;-72
2022/10/29 02:23:18;;;;;;;14.02;5.15;;;13.00;99.90;;;;;;4863982;29;20063;-72
2022/10/29 02:25:44;;;;;;;16.90;5.50;;;13.00;99.90;;;;;;4879097;29;20057;-72
2022/10/29 02:28:10;;;;;;;13.35;5.00;;;13.00;99.90;;;;;;4880035;29;20049;-72
2022/10/29 02:30:35;;;;;;;20.42;5.22;;;12.90;99.90;;;;;;4880040;29;20059;-72
2022/10/29 02:33:01;;;;;;;14.07;4.50;;;12.90;99.90;;;;;;4879752;29;20516;-72
2022/10/29 02:35:27;;;;;;;16.77;5.30;;;12.90;99.90;;;;;;4863545;29;20052;-72
2022/10/29 02:37:52;;;;;;;17.88;5.75;;;12.80;99.90;;;;;;4879888;29;20044;-72
2022/10/29 02:40:18;;;;;;;22.85;5.32;;;12.80;99.90;;;;;;4879959;29;20049;-72
2022/10/29 02:42:44;;;;;;;19.38;5.55;;;12.80;99.90;;;;;;4878996;29;20041;-72
2022/10/29 02:45:09;;;;;;;10.65;4.05;;;12.80;99.90;;;;;;4879734;29;20507;-72
2022/10/29 02:47:35;;;;;;;12.50;4.53;;;12.70;99.90;;;;;;4879181;29;20057;-72
2022/10/29 02:50:01;;;;;;;18.10;4.80;;;12.70;99.90;;;;;;4878899;29;20052;-72
2022/10/29 02:52:27;;;;;;;14.63;3.97;;;12.70;99.90;;;;;;4878718;29;20516;-72
2022/10/29 02:54:52;;;;;;;37.80;5.32;;;12.70;99.90;;;;;;4878833;29;20460;-72
2022/10/29 02:57:18;;;;;;;22.15;4.65;;;12.70;99.90;;;;;;4879663;29;20045;-72
2022/10/29 02:59:44;;;;;;;16.73;4.63;;;12.70;99.90;;;;;;4878475;29;20132;-72
2022/10/29 03:02:09;;;;;;;91.07;8.65;;;12.70;99.90;;;;;;4879425;29;20509;-72
2022/10/29 03:04:38;;;;;;;26.13;4.18;;;12.60;99.90;;;;;;4878635;29;20053;-72
2022/10/29 03:07:03;;;;;;;38.28;5.72;;;12.70;99.90;;;;;;4862892;29;20056;-72
2022/10/29 03:09:29;;;;;;;32.58;4.95;;;12.60;99.90;;;;;;4879651;29;20120;-71
2022/10/29 03:11:54;;;;;;;42.58;5.57;;;12.60;99.90;;;;;;4879499;29;20049;-72
2022/10/29 03:14:20;;;;;;;19.42;4.10;;;12.60;99.90;;;;;;4879410;29;20084;-72
2022/10/29 03:16:46;;;;;;;46.90;5.78;;;12.60;99.90;;;;;;4877760;29;20064;-72
2022/10/29 03:19:11;;;;;;;34.25;5.22;;;12.60;99.90;;;;;;4879487;29;20057;-72
2022/10/29 03:21:37;;;;;;;44.55;4.30;;;12.70;99.90;;;;;;4863219;29;20056;-72
2022/10/29 03:24:04;;;;;;;64.03;6.72;;;12.60;99.90;;;;;;4878457;29;20053;-72
2022/10/29 03:26:29;;;;;;;18.88;4.07;;;12.60;99.90;;;;;;4879319;29;20119;-72
2022/10/29 03:28:55;;;;;;;14.25;3.42;;;12.60;99.90;;;;;;4878194;29;20057;-72
2022/10/29 03:31:21;;;;;;;20.05;3.65;;;12.70;99.90;;;;;;4862714;29;20057;-72
2022/10/29 03:33:46;;;;;;;22.40;4.18;;;12.70;99.90;;;;;;4863038;29;20079;-72
2022/10/29 03:36:12;;;;;;;9.77;3.40;;;12.60;99.90;;;;;;4863158;29;20089;-72
2022/10/29 03:38:38;;;;;;;7.40;3.65;;;12.60;99.90;;;;;;4878295;29;20534;-72
2022/10/29 03:41:09;;;;;;;9.82;4.07;;;12.70;99.90;;;;;;4878220;29;20117;-72
2022/10/29 03:43:35;;;;;;;12.98;4.22;;;12.70;99.90;;;;;;4878061;29;20204;-72
2022/10/29 03:46:01;;;;;;;10.55;4.38;;;12.70;99.90;;;;;;4878036;29;20067;-72
2022/10/29 03:48:27;;;;;;;8.13;3.42;;;12.70;99.90;;;;;;4878823;29;20052;-72
2022/10/29 03:51:07;;;;;;;8.25;3.20;;;12.70;99.90;;;;;;4878058;29;20052;-72
2022/10/29 03:53:35;;;;;;;18.15;4.72;;;12.70;99.90;;;;;;4879464;29;20064;-72
2022/10/29 03:56:01;;;;;;;17.10;4.70;;;12.70;99.90;;;;;;4878235;29;20154;-72
2022/10/29 03:58:27;;;;;;;14.48;4.88;;;12.80;99.90;;;;;;4878042;29;20410;-73
2022/10/29 04:00:59;;;;;;;14.10;4.50;;;12.80;99.90;;;;;;4877936;29;20048;-72
2022/10/29 04:03:27;;;;;;;24.45;5.25;;;12.80;99.90;;;;;;4879137;29;20394;-72
2022/10/29 04:05:53;;;;;;;23.45;5.43;;;12.80;99.90;;;;;;4879206;29;20139;-72
2022/10/29 04:08:19;;;;;;;34.08;5.75;;;12.80;99.90;;;;;;4877742;29;20148;-72
2022/10/29 04:10:46;;;;;;;35.10;6.78;;;12.80;99.90;;;;;;4878130;29;20136;-73
2022/10/29 04:13:13;;;;;;;20.98;5.25;;;12.90;99.90;;;;;;4878753;29;20061;-72
2022/10/29 04:15:39;;;;;;;22.77;5.93;;;12.90;99.90;;;;;;4877860;29;20081;-72
2022/10/29 04:18:05;;;;;;;30.77;5.93;;;12.90;99.90;;;;;;4878646;29;20088;-72
2022/10/29 04:20:31;;;;;;;53.83;7.07;;;12.90;99.90;;;;;;4882349;29;20457;-72
2022/10/29 04:22:56;;;;;;;25.25;6.65;;;12.90;99.90;;;;;;4865763;29;20056;-72
2022/10/29 04:25:22;;;;;;;28.92;6.55;;;12.90;99.90;;;;;;4880925;29;20084;-72
2022/10/29 04:27:48;;;;;;;31.95;6.57;;;12.90;99.90;;;;;;4881945;29;20037;-72
2022/10/29 04:30:13;;;;;;;20.05;5.53;;;13.00;99.90;;;;;;4881039;29;20132;-72
2022/10/29 04:32:39;;;;;;;15.18;5.60;;;13.00;99.90;;;;;;4882170;29;20052;-72
2022/10/29 04:35:05;;;;;;;34.60;7.13;;;13.00;99.90;;;;;;4881100;29;20136;-72
2022/10/29 04:37:31;;;;;;;19.70;5.43;;;13.00;99.90;;;;;;4881023;29;20061;-72
2022/10/29 04:39:56;;;;;;;34.47;6.72;;;13.00;99.90;;;;;;4880929;29;20112;-72
2022/10/29 04:42:22;;;;;;;28.90;6.32;;;13.00;99.90;;;;;;4880795;29;20483;-73
2022/10/29 04:44:48;;;;;;;25.92;6.05;;;13.00;99.90;;;;;;4865374;29;20398;-72
2022/10/29 04:47:13;;;;;;;37.97;6.80;;;13.00;99.90;;;;;;4880250;29;20041;-72
2022/10/29 04:49:39;;;;;;;58.00;7.70;;;13.00;99.90;;;;;;4880869;29;20049;-72
2022/10/29 04:52:05;;;;;;;35.95;7.18;;;13.00;99.90;;;;;;4881022;29;20053;-72
2022/10/29 04:54:30;;;;;;;45.45;7.30;;;13.00;99.90;;;;;;4865272;29;20049;-72
2022/10/29 04:56:56;;;;;;;51.72;7.72;;;12.90;99.90;;;;;;4880519;29;20092;-72
2022/10/29 04:59:22;;;;;;;30.70;6.10;;;12.90;99.90;;;;;;4880553;29;20443;-72
2022/10/29 05:01:48;;;;;;;26.35;5.97;;;12.90;99.90;;;;;;4880499;29;20113;-72
2022/10/29 05:04:13;;;;;;;37.00;7.10;;;12.90;99.90;;;;;;4880516;29;20473;-72
2022/10/29 05:06:39;;;;;;;39.83;8.02;;;12.90;99.90;;;;;;4880452;29;20084;-72
2022/10/29 05:09:04;;;;;;;38.42;8.52;;;13.00;99.90;;;;;;4880557;29;20037;-72
2022/10/29 05:11:30;;;;;;;39.30;7.05;;;12.90;99.90;;;;;;4864494;29;20044;-72
2022/10/29 05:13:56;;;;;;;33.08;6.75;;;12.90;99.90;;;;;;4881031;29;20049;-72
2022/10/29 05:16:22;;;;;;;34.90;7.78;;;12.90;99.90;;;;;;4881281;29;20434;-72
2022/10/29 05:18:47;;;;;;;28.35;6.93;;;12.90;99.90;;;;;;4880946;29;20057;-72
2022/10/29 05:21:13;;;;;;;35.40;8.02;;;12.90;99.90;;;;;;4881507;29;20069;-72
2022/10/29 05:23:39;;;;;;;55.42;8.73;;;12.90;99.90;;;;;;4880369;29;20498;-72
2022/10/29 05:26:04;;;;;;;47.33;8.65;;;12.90;99.90;;;;;;4880009;29;20056;-72
2022/10/29 05:28:30;;;;;;;41.53;7.70;;;12.90;99.90;;;;;;4881177;29;20414;-72
2022/10/29 05:31:00;;;;;;;37.45;8.10;;;12.90;99.90;;;;;;4880132;29;20100;-72
2022/10/29 05:33:25;;;;;;;57.47;10.05;;;12.90;99.90;;;;;;4881033;29;20044;-72
2022/10/29 05:35:51;;;;;;;22.08;7.25;;;13.00;99.90;;;;;;4879815;29;20060;-72
2022/10/29 05:38:17;;;;;;;20.75;7.50;;;13.00;99.90;;;;;;4880911;29;20051;-72
2022/10/29 05:40:43;;;;;;;44.55;9.27;;;13.00;99.90;;;;;;4879625;29;20089;-72
2022/10/29 05:43:14;;;;;;;24.98;7.93;;;13.00;99.90;;;;;;4879788;29;20049;-72
2022/10/29 05:45:40;;;;;;;32.40;7.68;;;13.00;99.90;;;;;;4880384;29;20545;-72
2022/10/29 05:48:06;;;;;;;29.63;8.30;;;13.00;99.90;;;;;;4879452;29;20059;-72
2022/10/29 05:50:33;;;;;;;25.15;8.30;;;13.00;99.90;;;;;;4879604;29;20057;-72
2022/10/29 05:53:01;;;;;;;34.90;8.88;;;13.00;99.90;;;;;;4879801;29;20187;-72
2022/10/29 05:55:28;;;;;;;18.42;7.82;;;13.00;99.90;;;;;;4880425;29;20053;-72
2022/10/29 05:57:57;;;;;;;32.97;9.70;;;13.00;99.90;;;;;;4880777;29;20105;-72
2022/10/29 06:00:24;;;;;;;30.35;9.45;;;13.00;99.90;;;;;;4879605;29;20052;-72
2022/10/29 06:02:50;;;;;;;22.65;8.23;;;13.00;99.90;;;;;;4879460;29;20081;-72
2022/10/29 06:05:16;;;;;;;28.35;8.98;;;13.00;99.90;;;;;;4864180;29;20041;-72
2022/10/29 06:07:41;;;;;;;15.90;7.78;;;13.10;99.90;;;;;;4879114;29;20044;-72
2022/10/29 06:10:07;;;;;;;25.10;8.50;;;13.10;99.90;;;;;;4879495;29;20501;-72
2022/10/29 06:12:33;;;;;;;34.38;9.55;;;13.10;99.90;;;;;;4879229;29;20057;-72
2022/10/29 06:14:59;;;;;;;28.33;8.57;;;13.10;99.90;;;;;;4880189;29;20081;-72
2022/10/29 06:17:26;;;;;;;25.77;8.25;;;13.10;99.90;;;;;;4878561;29;20152;-72
2022/10/29 06:19:51;;;;;;;25.25;7.50;;;13.10;99.90;;;;;;4879379;29;20053;-72
2022/10/29 06:22:17;;;;;;;28.40;7.47;;;13.10;99.90;;;;;;4863676;29;20394;-72
2022/10/29 06:24:43;;;;;;;17.48;6.28;;;13.10;99.90;;;;;;4879911;29;20434;-73
2022/10/29 06:27:08;;;;;;;17.25;6.20;;;13.10;99.90;;;;;;4878920;29;20052;-73
2022/10/29 06:29:34;;;;;;;16.02;6.25;;;13.20;99.90;;;;;;4880038;29;20053;-72
2022/10/29 06:32:00;;;;;;;21.80;7.22;;;13.20;99.90;;;;;;4880207;29;20163;-72
2022/10/29 06:34:25;;;;;;;30.77;8.32;;;13.20;99.90;;;;;;4863896;29;20049;-73
2022/10/29 06:36:51;;;;;;;17.67;6.80;;;13.20;99.90;;;;;;4878749;29;20045;-73
2022/10/29 06:39:17;;;;;;;22.58;8.40;;;13.20;99.90;;;;;;4880094;29;20121;-73
2022/10/29 06:41:42;;;;;;;35.25;9.35;;;13.20;99.90;;;;;;4878231;29;20132;-73
2022/10/29 06:44:08;;;;;;;30.23;8.65;;;13.20;99.90;;;;;;4878955;29;20059;-73
2022/10/29 06:46:34;;;;;;;25.13;8.38;;;13.20;99.90;;;;;;4878625;29;20135;-73
2022/10/29 06:49:01;;;;;;;22.27;8.40;;;13.30;99.90;;;;;;4878542;29;20092;-73
2022/10/29 06:51:27;;;;;;;18.90;7.55;;;13.20;99.90;;;;;;4878987;29;20486;-73
2022/10/29 06:53:53;;;;;;;25.23;7.97;;;13.30;99.90;;;;;;4879781;29;20067;-73
2022/10/29 06:56:20;;;;;;;22.20;8.85;;;13.30;99.90;;;;;;4879104;29;20048;-73
2022/10/29 06:58:46;;;;;;;23.50;7.68;;;13.30;99.90;;;;;;4879819;29;20053;-73
2022/10/29 07:01:12;;;;;;;28.38;8.07;;;13.30;99.90;;;;;;4879648;29;20450;-73
2022/10/29 07:03:37;;;;;;;28.15;9.57;;;13.30;99.90;;;;;;4878882;29;20045;-73
2022/10/29 07:06:03;;;;;;;22.80;8.18;;;13.30;99.90;;;;;;4879480;29;20088;-73
2022/10/29 07:08:29;;;;;;;23.63;8.43;;;13.30;99.90;;;;;;4879685;29;20077;-73
2022/10/29 07:10:55;;;;;;;21.90;8.73;;;13.40;99.90;;;;;;4878897;29;20056;-73
2022/10/29 07:13:21;;;;;;;16.42;7.88;;;13.40;99.90;;;;;;4879811;29;20052;-73
2022/10/29 07:15:47;;;;;;;39.78;10.18;;;13.40;99.90;;;;;;4879693;29;20053;-73
2022/10/29 07:18:13;;;;;;;30.35;8.90;;;13.40;99.90;;;;;;4877633;29;20065;-73
2022/10/29 07:20:41;;;;;;;33.65;10.85;;;13.40;99.90;;;;;;4879508;29;20105;-73
2022/10/29 07:23:08;;;;;;;28.70;9.38;;;13.40;99.90;;;;;;4863278;29;20088;-73
2022/10/29 07:25:35;;;;;;;28.38;10.20;;;13.50;99.90;;;;;;4879227;29;20065;-72
2022/10/29 07:28:03;;;;;;;43.03;10.40;;;13.50;99.90;;;;;;4878351;29;20099;-72
2022/10/29 07:30:29;;;;;;;58.13;14.57;;;13.50;99.90;;;;;;4878881;29;20085;-73
2022/10/29 07:32:55;;;;;;;27.85;9.43;;;13.50;99.90;;;;;;4878601;29;20087;-73
2022/10/29 07:35:20;;;;;;;25.13;10.02;;;13.50;99.90;;;;;;4879415;29;20494;-73
2022/10/29 07:37:46;;;;;;;31.20;9.45;;;13.60;99.90;;;;;;4879535;29;20132;-73
2022/10/29 07:40:12;;;;;;;20.60;9.75;;;13.60;99.90;;;;;;4878271;29;20084;-73
2022/10/29 07:42:38;;;;;;;25.05;9.85;;;13.60;99.90;;;;;;4878652;29;20451;-73
2022/10/29 07:45:04;;;;;;;41.28;11.43;;;13.60;99.90;;;;;;4879456;29;20493;-73
2022/10/29 07:47:30;;;;;;;29.83;11.70;;;13.60;99.90;;;;;;4877595;29;20053;-72
2022/10/29 07:49:55;;;;;;;34.65;11.75;;;13.60;99.90;;;;;;4878297;29;20049;-73
2022/10/29 07:52:21;;;;;;;42.85;11.75;;;13.60;99.90;;;;;;4847510;29;20474;-72
2022/10/29 07:54:47;;;;;;;34.50;11.88;;;13.70;99.90;;;;;;4881797;29;20053;-73
2022/10/29 07:57:13;;;;;;;25.17;10.10;;;13.70;99.90;;;;;;4881680;29;20045;-72
2022/10/29 07:59:38;;;;;;;29.95;10.82;;;13.70;99.90;;;;;;4882510;29;20060;-72
2022/10/29 08:02:04;;;;;;;33.33;11.98;;;13.70;99.90;;;;;;4881730;29;20049;-71
2022/10/29 08:04:30;;;;;;;35.35;12.88;;;13.80;99.90;;;;;;4881535;29;20057;-72
2022/10/29 08:06:56;;;;;;;40.78;14.48;;;13.90;99.90;;;;;;4881636;29;20464;-71
2022/10/29 08:09:22;;;;;;;31.95;12.13;;;13.80;99.90;;;;;;4881539;29;20048;-72
2022/10/29 08:11:47;;;;;;;45.28;13.82;;;13.80;99.90;;;;;;4881621;29;20132;-72
2022/10/29 08:14:13;;;;;;;30.33;10.55;;;13.80;99.90;;;;;;4882533;29;20049;-71
2022/10/29 08:16:39;;;;;;;35.45;12.82;;;13.90;99.90;;;;;;4865974;29;20061;-72
2022/10/29 08:19:04;;;;;;;44.45;15.07;;;13.90;99.90;;;;;;4881830;29;20060;-72
2022/10/29 08:21:30;;;;;;;36.03;13.77;;;13.90;99.90;;;;;;4865993;29;20053;-72
2022/10/29 08:23:56;;;;;;;53.38;17.35;;;13.90;99.90;;;;;;4881796;29;20099;-72
2022/10/29 08:26:21;;;;;;;53.33;17.13;;;14.00;99.90;;;;;;4850578;29;20049;-73
2022/10/29 08:28:47;;;;;;;45.30;17.63;;;14.00;99.90;;;;;;4881439;29;20072;-72
2022/10/29 08:31:13;;;;;;;47.38;17.88;;;14.00;99.90;;;;;;4882383;29;20459;-73
2022/10/29 08:33:39;;;;;;;45.08;16.35;;;14.00;99.90;;;;;;4881195;29;20091;-73
2022/10/29 08:36:05;;;;;;;36.17;15.15;;;13.90;99.90;;;;;;4850480;29;20084;-72
2022/10/29 08:38:30;;;;;;;40.75;16.05;;;14.00;99.90;;;;;;4865806;29;20056;-71
2022/10/29 08:41:14;;;;;;;37.78;14.98;;;14.10;99.90;;;;;;4866005;29;20117;-72
2022/10/29 08:43:51;;;;;;;33.90;15.43;;;14.10;99.90;;;;;;4881475;29;20143;-72
2022/10/29 08:46:31;;;;;;;37.35;15.55;;;14.10;99.90;;;;;;4876999;29;20076;-72
2022/10/29 08:49:02;;;;;;;38.33;14.80;;;14.10;99.90;;;;;;4880607;29;20045;-73
2022/10/29 08:51:33;;;;;;;38.90;15.77;;;14.10;99.90;;;;;;4881868;29;20075;-72
2022/10/29 08:53:59;;;;;;;35.75;15.20;;;14.20;99.90;;;;;;4880753;29;20044;-72
2022/10/29 08:56:28;;;;;;;44.97;18.08;;;14.20;99.90;;;;;;4880939;29;20100;-72
2022/10/29 08:59:07;;;;;;;34.15;14.38;;;14.20;99.90;;;;;;4881921;29;20056;-72
2022/10/29 09:01:32;;;;;;;35.72;17.02;;;14.20;99.90;;;;;;4880448;29;20081;-72
2022/10/29 09:03:58;;;;;;;46.15;17.85;;;14.30;99.90;;;;;;4880061;29;20570;-72
2022/10/29 09:06:33;;;;;;;49.45;18.17;;;14.30;99.90;;;;;;4864130;29;20045;-72
2022/10/29 09:09:16;;;;;;;40.13;17.75;;;14.30;99.90;;;;;;4877408;29;20054;-73
2022/10/29 09:12:06;;;;;;;34.95;16.80;;;14.30;99.90;;;;;;4880254;29;20040;-73
2022/10/29 09:15:03;;;;;;;33.67;16.42;;;14.40;99.90;;;;;;4878557;29;20109;-73
2022/10/29 09:17:56;;;;;;;32.25;15.10;;;14.40;99.90;;;;;;4877409;29;20116;-72
2022/10/29 09:20:27;;;;;;;;;;;14.40;99.90;;;;;;4878029;29;20556;-73
2022/10/29 09:23:23;;;;;;;37.22;16.92;;;14.40;99.90;;;;;;4880258;29;19928;-73
2022/10/29 09:25:52;;;;;;;30.50;15.05;;;14.50;99.90;;;;;;4877287;29;20037;-73
2022/10/29 09:28:29;;;;;;;34.13;16.80;;;14.40;99.90;;;;;;4864302;29;20097;-73
2022/10/29 09:31:17;;;;;;;33.70;17.20;;;14.50;99.90;;;;;;4880712;29;20041;-73
2022/10/29 09:33:45;;;;;;;29.88;15.68;;;14.50;99.90;;;;;;4861351;29;20432;-72
2022/10/29 09:36:16;;;;;;;40.33;16.85;;;14.50;99.90;;;;;;4879134;29;20072;-72
2022/10/29 09:38:58;;;;;;;31.52;16.00;;;14.60;99.90;;;;;;4878288;29;20124;-73
2022/10/29 09:41:27;;;;;;;34.90;17.92;;;14.60;99.90;;;;;;4877196;29;20056;-73
2022/10/29 09:44:02;;;;;;;33.33;17.65;;;14.60;99.90;;;;;;4864229;29;20044;-73
2022/10/29 09:46:53;;;;;;;31.38;15.60;;;14.60;99.90;;;;;;4878444;29;20049;-73
2022/10/29 09:49:45;;;;;;;30.13;15.48;;;14.60;99.90;;;;;;4863275;29;20124;-73
2022/10/29 09:52:23;;;;;;;30.30;15.88;;;14.60;99.90;;;;;;4878878;29;20607;-72
2022/10/29 09:54:51;;;;;;;27.67;14.60;;;14.60;99.90;;;;;;4878585;29;20490;-72
2022/10/29 09:57:29;;;;;;;29.02;15.32;;;14.60;99.90;;;;;;4876435;29;20410;-73
2022/10/29 09:59:57;;;;;;;29.30;14.77;;;14.60;99.90;;;;;;4879154;29;20494;-72
2022/10/29 10:02:36;;;;;;;24.38;14.23;;;14.60;99.90;;;;;;4877576;29;20573;-72
2022/10/29 10:05:12;;;;;;;27.38;14.55;;;14.70;99.90;;;;;;4879246;29;20097;-72
2022/10/29 10:07:38;;;;;;;24.23;15.00;;;14.70;99.90;;;;;;4878724;29;20467;-72
2022/10/29 10:10:18;;;;;;;25.48;15.55;;;14.70;99.90;;;;;;4880244;29;20402;-72
2022/10/29 10:12:49;;;;;;;30.13;14.88;;;14.70;99.90;;;;;;4879239;29;20051;-72
2022/10/29 10:15:14;;;;;;;26.30;14.38;;;14.70;99.90;;;;;;4879026;29;20044;-72
2022/10/29 10:18:04;;;;;;;31.33;15.25;;;14.70;99.90;;;;;;4874787;29;20112;-72
2022/10/29 10:20:32;;;;;;;26.48;14.88;;;14.70;99.90;;;;;;4878192;29;20502;-72
2022/10/29 10:22:58;;;;;;;27.10;14.25;;;14.80;99.90;;;;;;4878913;29;20049;-72
2022/10/29 10:25:36;;;;;;;26.70;13.95;;;14.70;99.90;;;;;;4878329;29;20091;-72
2022/10/29 10:28:23;;;;;;;29.33;14.40;;;14.80;99.90;;;;;;4879626;29;20045;-72
2022/10/29 10:31:05;;;;;;;28.02;14.20;;;14.80;99.90;;;;;;4875423;29;20044;-72
2022/10/29 10:33:33;;;;;;;28.90;14.02;;;14.90;99.90;;;;;;4874660;29;20486;-73
2022/10/29 10:36:07;;;;;;;23.42;13.52;;;14.90;99.90;;;;;;4878318;29;20041;-72
2022/10/29 10:38:44;;;;;;;25.23;13.70;;;15.00;99.90;;;;;;4878349;29;20422;-72
2022/10/29 10:41:13;;;;;;;23.65;12.68;;;15.00;99.90;;;;;;4876256;29;20049;-72
2022/10/29 10:43:45;;;;;;;26.17;13.68;;;15.00;99.90;;;;;;4878011;29;20052;-72
2022/10/29 10:46:33;;;;;;;22.63;13.80;;;15.10;99.90;;;;;;4878976;29;20124;-72
2022/10/29 10:49:02;;;;;;;21.15;12.70;;;15.10;99.90;;;;;;4877982;29;20044;-72
2022/10/29 10:51:31;;;;;;;23.40;12.65;;;15.10;99.90;;;;;;4878201;29;20041;-72
2022/10/29 10:53:58;;;;;;;21.30;12.73;;;15.20;99.90;;;;;;4879080;29;20080;-72
2022/10/29 10:56:24;;;;;;;24.30;12.60;;;15.20;99.90;;;;;;4883568;29;20057;-72
2022/10/29 10:59:13;;;;;;;21.50;12.23;;;15.20;99.90;;;;;;4877861;29;20132;-72
2022/10/29 11:01:44;;;;;;;22.75;13.00;;;15.30;99.90;;;;;;4862486;29;20057;-72
2022/10/29 11:04:44;;;;;;;21.52;12.18;;;15.40;99.90;;;;;;4878433;29;20486;-71
2022/10/29 11:07:12;;;;;;;24.48;12.45;;;15.40;99.90;;;;;;4877306;29;20128;-71
2022/10/29 11:09:45;;;;;;;18.30;11.38;;;15.50;99.90;;;;;;4878951;29;20059;-72
2022/10/29 11:12:23;;;;;;;;;;;15.50;99.90;;;;;;4878520;29;20060;-71
2022/10/29 11:15:07;;;;;;;20.23;11.48;;;15.60;99.90;;;;;;4877056;29;20448;-72
2022/10/29 11:17:53;;;;;;;23.60;11.13;;;15.60;99.90;;;;;;4875781;29;20104;-72
2022/10/29 11:20:27;;;;;;;21.65;11.10;;;15.70;99.90;;;;;;4878367;29;20570;-72
2022/10/29 11:23:21;;;;;;;21.33;11.73;;;15.70;99.90;;;;;;4877954;29;20060;-72
2022/10/29 11:25:57;;;;;;;20.08;10.57;;;15.80;99.90;;;;;;4877625;29;20048;-70
2022/10/29 11:29:02;;;;;;;18.67;10.18;;;15.80;99.90;;;;;;4873631;29;20044;-72
2022/10/29 11:32:06;;;;;;;20.25;11.13;;;15.90;99.90;;;;;;4804347;29;20046;-72
2022/10/29 11:34:51;;;;;;;20.92;9.70;;;15.90;99.90;;;;;;4828026;29;20061;-72
2022/10/29 11:37:26;;;;;;;18.98;9.60;;;16.00;99.90;;;;;;4875924;29;20049;-72
2022/10/29 11:40:13;;;;;;;23.60;11.70;;;16.10;99.90;;;;;;4880094;29;20108;-72
2022/10/29 11:42:39;;;;;;;19.77;9.68;;;16.10;99.90;;;;;;4881325;29;20505;-72
2022/10/29 11:45:11;;;;;;;16.65;8.63;;;16.10;99.90;;;;;;4880269;29;20052;-72
2022/10/29 11:48:17;;;;;;;18.87;8.97;;;16.20;99.90;;;;;;4881751;29;20443;-71
2022/10/29 11:51:04;;;;;;;17.70;9.07;;;16.30;99.90;;;;;;4881092;29;20072;-72
2022/10/29 11:53:47;;;;;;;15.98;9.40;;;16.40;99.90;;;;;;4879289;29;20053;-71
2022/10/29 11:56:45;;;;;;;17.15;9.63;;;16.40;99.90;;;;;;4880037;29;20165;-71
2022/10/29 11:59:53;;;;;;;15.85;8.93;;;16.50;99.90;;;;;;4880661;29;20507;-71
2022/10/29 12:02:21;;;;;;;14.52;8.77;;;16.60;99.90;;;;;;4880386;29;20084;-71
2022/10/29 12:04:56;;;;;;;13.63;9.43;;;16.70;99.90;;;;;;4881098;29;20051;-71
2022/10/29 12:08:01;;;;;;;18.05;9.32;;;16.80;99.90;;;;;;4881938;29;20048;-72
2022/10/29 12:10:38;;;;;;;17.30;8.60;;;16.80;99.90;;;;;;4881297;29;20394;-72
2022/10/29 12:13:10;;;;;;;15.93;9.15;;;16.90;99.90;;;;;;4879689;29;20053;-71
2022/10/29 12:16:07;;;;;;;17.75;8.90;;;16.90;99.90;;;;;;4880959;29;20090;-71
2022/10/29 12:18:44;;;;;;;19.30;11.38;;;16.90;99.90;;;;;;4876553;29;20064;-72
2022/10/29 12:21:36;;;;;;;18.02;9.32;;;16.90;99.90;;;;;;4878943;29;20482;-72
2022/10/29 12:24:21;;;;;;;15.02;9.35;;;16.90;99.90;;;;;;4881533;29;20045;-72
2022/10/29 12:26:55;;;;;;;15.23;9.50;;;17.00;99.90;;;;;;4878493;29;20048;-71
2022/10/29 12:29:23;;;;;;;17.42;9.52;;;16.90;99.90;;;;;;4880705;29;20390;-73
2022/10/29 12:32:07;;;;;;;18.38;9.60;;;17.00;99.90;;;;;;4881463;29;20064;-72
2022/10/29 12:35:01;;;;;;;17.92;10.18;;;17.00;99.90;;;;;;4876735;29;20055;-72
2022/10/29 12:37:35;;;;;;;24.38;10.00;;;17.00;99.90;;;;;;4879429;29;20045;-73
2022/10/29 12:40:27;;;;;;;15.82;9.60;;;17.00;99.90;;;;;;4878377;29;20047;-72
2022/10/29 12:42:55;;;;;;;17.98;9.52;;;17.10;99.90;;;;;;4870991;29;20145;-72
2022/10/29 12:45:25;;;;;;;16.13;9.93;;;17.00;99.90;;;;;;4880039;29;20053;-73
2022/10/29 12:47:50;;;;;;;15.27;9.48;;;17.10;99.90;;;;;;4879532;29;20041;-73
2022/10/29 12:50:42;;;;;;;16.30;9.02;;;17.10;99.90;;;;;;4880126;29;20045;-71
2022/10/29 12:53:11;;;;;;;17.00;9.52;;;17.10;99.90;;;;;;4881412;29;20448;-71
2022/10/29 12:55:37;;;;;;;16.92;9.32;;;17.10;99.90;;;;;;4881092;29;20095;-71
2022/10/29 12:58:40;;;;;;;17.27;9.27;;;17.20;99.90;;;;;;4879514;29;20045;-72